sensor_id;sensor_type;location;lat;lon;timestamp;temperature;humidity
7002;DHT22;3541;53.230;10.518;2023-05-10T00:02:25;15.90;99.90
7002;DHT22;3541;53.230;10.518;2023-05-10T00:04:51;15.90;99.90
7002;DHT22;3541;53.230;10.518;2023-05-10T00:07:18;15.90;99.90
7002;DHT22;3541;53.230;10.518;2023-05-10T00:09:44;15.80;99.90
7002;DHT22;3541;53.230;10.518;2023-05-10T00:12:11;15.90;99.90
7002;DHT22;3541;53.230;10.518;2023-05-10T00:14:39;15.90;99.90
7002;DHT22;3541;53.230;10.518;2023-05-10T00:17:05;15.70;99.90
7002;DHT22;3541;53.230;10.518;2023-05-10T00:19:32;15.90;99.90
7002;DHT22;3541;53.230;10.518;2023-05-10T00:21:58;15.90;99.90
7002;DHT22;3541;53.230;10.518;2023-05-10T00:24:25;15.90;99.90
7002;DHT22;3541;53.230;10.518;2023-05-10T00:26:51;15.70;99.90
7002;DHT22;3541;53.230;10.518;2023-05-10T00:29:18;15.60;99.90
7002;DHT22;3541;53.230;10.518;2023-05-10T00:31:46;15.60;99.90
7002;DHT22;3541;53.230;10.518;2023-05-10T00:34:13;15.60;99.90
7002;DHT22;3541;53.230;10.518;2023-05-10T00:36:40;15.80;99.90
7002;DHT22;3541;53.230;10.518;2023-05-10T00:39:06;15.60;99.90
7002;DHT22;3541;53.230;10.518;2023-05-10T00:41:33;15.70;99.90
7002;DHT22;3541;53.230;10.518;2023-05-10T00:44:00;15.80;99.90
7002;DHT22;3541;53.230;10.518;2023-05-10T00:46:27;15.80;99.90
7002;DHT22;3541;53.230;10.518;2023-05-10T00:48:55;15.90;99.90
7002;DHT22;3541;53.230;10.518;2023-05-10T00:51:22;15.60;99.90
7002;DHT22;3541;53.230;10.518;2023-05-10T00:53:49;15.70;99.90
7002;DHT22;3541;53.230;10.518;2023-05-10T00:56:17;15.70;99.90
7002;DHT22;3541;53.230;10.518;2023-05-10T00:58:43;15.60;99.90
7002;DHT22;3541;53.230;10.518;2023-05-10T01:01:10;15.50;99.90
7002;DHT22;3541;53.230;10.518;2023-05-10T01:03:38;15.60;99.90
7002;DHT22;3541;53.230;10.518;2023-05-10T01:06:07;15.60;99.90
7002;DHT22;3541;53.230;10.518;2023-05-10T01:08:35;15.40;99.90
7002;DHT22;3541;53.230;10.518;2023-05-10T01:11:02;15.40;99.90
7002;DHT22;3541;53.230;10.518;2023-05-10T01:13:33;15.40;99.90
7002;DHT22;3541;53.230;10.518;2023-05-10T01:16:00;15.20;99.90
7002;DHT22;3541;53.230;10.518;2023-05-10T01:18:28;15.10;99.90
7002;DHT22;3541;53.230;10.518;2023-05-10T01:21:02;15.30;99.90
7002;DHT22;3541;53.230;10.518;2023-05-10T01:23:59;15.20;99.90
7002;DHT22;3541;53.230;10.518;2023-05-10T01:26:45;15.00;99.90
7002;DHT22;3541;53.230;10.518;2023-05-10T01:29:38;15.20;99.90
7002;DHT22;3541;53.230;10.518;2023-05-10T01:32:20;15.20;99.90
7002;DHT22;3541;53.230;10.518;2023-05-10T01:34:54;15.10;99.90
7002;DHT22;3541;53.230;10.518;2023-05-10T01:37:28;15.20;99.90
7002;DHT22;3541;53.230;10.518;2023-05-10T01:40:01;15.00;99.90
7002;DHT22;3541;53.230;10.518;2023-05-10T01:42:36;15.00;99.90
7002;DHT22;3541;53.230;10.518;2023-05-10T01:45:13;15.20;99.90
7002;DHT22;3541;53.230;10.518;2023-05-10T01:47:43;15.20;99.90
7002;DHT22;3541;53.230;10.518;2023-05-10T01:50:14;15.00;99.90
7002;DHT22;3541;53.230;10.518;2023-05-10T01:52:42;14.90;99.90
7002;DHT22;3541;53.230;10.518;2023-05-10T01:55:14;14.80;99.90
7002;DHT22;3541;53.230;10.518;2023-05-10T01:57:43;14.90;99.90
7002;DHT22;3541;53.230;10.518;2023-05-10T02:00:12;14.90;99.90
7002;DHT22;3541;53.230;10.518;2023-05-10T02:02:42;14.70;99.90
7002;DHT22;3541;53.230;10.518;2023-05-10T02:05:12;14.60;99.90
7002;DHT22;3541;53.230;10.518;2023-05-10T02:07:39;14.70;99.90
7002;DHT22;3541;53.230;10.518;2023-05-10T02:10:08;14.80;99.90
7002;DHT22;3541;53.230;10.518;2023-05-10T02:12:36;14.70;99.90
7002;DHT22;3541;53.230;10.518;2023-05-10T02:15:06;14.50;99.90
7002;DHT22;3541;53.230;10.518;2023-05-10T02:17:34;14.60;99.90
7002;DHT22;3541;53.230;10.518;2023-05-10T02:20:04;14.40;99.90
7002;DHT22;3541;53.230;10.518;2023-05-10T02:22:31;14.40;99.90
7002;DHT22;3541;53.230;10.518;2023-05-10T02:25:00;14.30;99.90
7002;DHT22;3541;53.230;10.518;2023-05-10T02:27:27;14.30;99.90
7002;DHT22;3541;53.230;10.518;2023-05-10T02:29:54;14.30;99.90
7002;DHT22;3541;53.230;10.518;2023-05-10T02:32:22;14.20;99.90
7002;DHT22;3541;53.230;10.518;2023-05-10T02:34:51;14.30;99.90
7002;DHT22;3541;53.230;10.518;2023-05-10T02:37:20;14.40;99.90
7002;DHT22;3541;53.230;10.518;2023-05-10T02:39:47;14.30;99.90
7002;DHT22;3541;53.230;10.518;2023-05-10T02:42:17;14.30;99.90
7002;DHT22;3541;53.230;10.518;2023-05-10T02:44:48;14.20;99.90
7002;DHT22;3541;53.230;10.518;2023-05-10T02:47:15;14.20;99.90
7002;DHT22;3541;53.230;10.518;2023-05-10T02:49:42;14.20;99.90
7002;DHT22;3541;53.230;10.518;2023-05-10T02:52:08;14.20;99.90
7002;DHT22;3541;53.230;10.518;2023-05-10T02:54:45;14.20;99.90
7002;DHT22;3541;53.230;10.518;2023-05-10T02:57:16;14.20;99.90
7002;DHT22;3541;53.230;10.518;2023-05-10T02:59:43;14.20;99.90
7002;DHT22;3541;53.230;10.518;2023-05-10T03:02:10;14.20;99.90
7002;DHT22;3541;53.230;10.518;2023-05-10T03:04:38;14.30;99.90
7002;DHT22;3541;53.230;10.518;2023-05-10T03:07:05;14.30;99.90
7002;DHT22;3541;53.230;10.518;2023-05-10T03:09:32;14.10;99.90
7002;DHT22;3541;53.230;10.518;2023-05-10T03:12:10;14.10;99.90
7002;DHT22;3541;53.230;10.518;2023-05-10T03:14:47;14.30;99.90
7002;DHT22;3541;53.230;10.518;2023-05-10T03:17:22;14.10;99.90
7002;DHT22;3541;53.230;10.518;2023-05-10T03:19:53;14.20;99.90
7002;DHT22;3541;53.230;10.518;2023-05-10T03:22:24;14.30;99.90
7002;DHT22;3541;53.230;10.518;2023-05-10T03:24:54;14.20;99.90
7002;DHT22;3541;53.230;10.518;2023-05-10T03:27:25;14.10;99.90
7002;DHT22;3541;53.230;10.518;2023-05-10T03:29:52;13.90;99.90
7002;DHT22;3541;53.230;10.518;2023-05-10T03:32:19;13.80;99.90
7002;DHT22;3541;53.230;10.518;2023-05-10T03:34:46;13.70;99.90
7002;DHT22;3541;53.230;10.518;2023-05-10T03:37:12;13.80;99.90
7002;DHT22;3541;53.230;10.518;2023-05-10T03:39:39;13.90;99.90
7002;DHT22;3541;53.230;10.518;2023-05-10T03:42:06;13.90;99.90
7002;DHT22;3541;53.230;10.518;2023-05-10T03:44:34;14.00;99.90
7002;DHT22;3541;53.230;10.518;2023-05-10T03:47:00;13.90;99.90
7002;DHT22;3541;53.230;10.518;2023-05-10T03:49:27;13.90;99.90
7002;DHT22;3541;53.230;10.518;2023-05-10T03:51:54;13.90;99.90
7002;DHT22;3541;53.230;10.518;2023-05-10T03:54:20;13.80;99.90
7002;DHT22;3541;53.230;10.518;2023-05-10T03:56:47;13.80;99.90
7002;DHT22;3541;53.230;10.518;2023-05-10T03:59:13;13.80;99.90
7002;DHT22;3541;53.230;10.518;2023-05-10T04:01:41;13.60;99.90
7002;DHT22;3541;53.230;10.518;2023-05-10T04:04:08;13.70;99.90
7002;DHT22;3541;53.230;10.518;2023-05-10T04:06:34;13.70;99.90
7002;DHT22;3541;53.230;10.518;2023-05-10T04:09:01;13.70;99.90
7002;DHT22;3541;53.230;10.518;2023-05-10T04:11:29;13.70;99.90
7002;DHT22;3541;53.230;10.518;2023-05-10T04:13:56;13.60;99.90
7002;DHT22;3541;53.230;10.518;2023-05-10T04:16:23;13.60;99.90
7002;DHT22;3541;53.230;10.518;2023-05-10T04:18:51;13.70;99.90
7002;DHT22;3541;53.230;10.518;2023-05-10T04:21:18;13.70;99.90
7002;DHT22;3541;53.230;10.518;2023-05-10T04:23:44;13.70;99.90
7002;DHT22;3541;53.230;10.518;2023-05-10T04:26:11;13.60;99.90
7002;DHT22;3541;53.230;10.518;2023-05-10T04:28:38;13.70;99.90
7002;DHT22;3541;53.230;10.518;2023-05-10T04:31:05;13.80;99.90
7002;DHT22;3541;53.230;10.518;2023-05-10T04:33:33;13.90;99.90
7002;DHT22;3541;53.230;10.518;2023-05-10T04:36:01;13.80;99.90
7002;DHT22;3541;53.230;10.518;2023-05-10T04:38:28;13.70;99.90
7002;DHT22;3541;53.230;10.518;2023-05-10T04:41:02;13.70;99.90
7002;DHT22;3541;53.230;10.518;2023-05-10T04:43:29;13.50;99.90
7002;DHT22;3541;53.230;10.518;2023-05-10T04:45:56;13.60;99.90
7002;DHT22;3541;53.230;10.518;2023-05-10T04:48:23;13.30;99.90
7002;DHT22;3541;53.230;10.518;2023-05-10T04:50:49;13.30;99.90
7002;DHT22;3541;53.230;10.518;2023-05-10T04:53:17;13.40;99.90
7002;DHT22;3541;53.230;10.518;2023-05-10T04:55:44;13.40;99.90
7002;DHT22;3541;53.230;10.518;2023-05-10T04:58:11;13.50;99.90
7002;DHT22;3541;53.230;10.518;2023-05-10T05:00:38;13.60;99.90
7002;DHT22;3541;53.230;10.518;2023-05-10T05:03:04;13.80;99.90
7002;DHT22;3541;53.230;10.518;2023-05-10T05:05:31;13.80;99.90
7002;DHT22;3541;53.230;10.518;2023-05-10T05:07:57;13.70;99.90
7002;DHT22;3541;53.230;10.518;2023-05-10T05:10:25;13.80;99.90
7002;DHT22;3541;53.230;10.518;2023-05-10T05:12:52;13.90;99.90
7002;DHT22;3541;53.230;10.518;2023-05-10T05:15:19;13.90;99.90
7002;DHT22;3541;53.230;10.518;2023-05-10T05:17:45;13.80;99.90
7002;DHT22;3541;53.230;10.518;2023-05-10T05:20:12;13.80;99.90
7002;DHT22;3541;53.230;10.518;2023-05-10T05:22:39;13.70;99.90
7002;DHT22;3541;53.230;10.518;2023-05-10T05:25:06;13.60;99.90
7002;DHT22;3541;53.230;10.518;2023-05-10T05:27:34;13.70;99.90
7002;DHT22;3541;53.230;10.518;2023-05-10T05:30:01;13.70;99.90
7002;DHT22;3541;53.230;10.518;2023-05-10T05:32:27;13.80;99.90
7002;DHT22;3541;53.230;10.518;2023-05-10T05:34:54;14.00;99.90
7002;DHT22;3541;53.230;10.518;2023-05-10T05:37:21;14.00;99.90
7002;DHT22;3541;53.230;10.518;2023-05-10T05:39:48;13.90;99.90
7002;DHT22;3541;53.230;10.518;2023-05-10T05:42:14;14.00;99.90
7002;DHT22;3541;53.230;10.518;2023-05-10T05:44:43;13.90;99.90
7002;DHT22;3541;53.230;10.518;2023-05-10T05:47:10;14.00;99.90
7002;DHT22;3541;53.230;10.518;2023-05-10T05:49:36;14.00;99.90
7002;DHT22;3541;53.230;10.518;2023-05-10T05:52:04;14.00;99.90
7002;DHT22;3541;53.230;10.518;2023-05-10T05:54:31;14.20;99.90
7002;DHT22;3541;53.230;10.518;2023-05-10T05:56:58;14.30;99.90
7002;DHT22;3541;53.230;10.518;2023-05-10T05:59:25;14.20;99.90
7002;DHT22;3541;53.230;10.518;2023-05-10T06:01:53;14.40;99.90
7002;DHT22;3541;53.230;10.518;2023-05-10T06:04:20;14.50;99.90
7002;DHT22;3541;53.230;10.518;2023-05-10T06:06:46;14.50;99.90
7002;DHT22;3541;53.230;10.518;2023-05-10T06:09:13;14.50;99.90
7002;DHT22;3541;53.230;10.518;2023-05-10T06:11:39;14.40;99.90
7002;DHT22;3541;53.230;10.518;2023-05-10T06:14:06;14.50;99.90
7002;DHT22;3541;53.230;10.518;2023-05-10T06:16:33;14.40;99.90
7002;DHT22;3541;53.230;10.518;2023-05-10T06:19:01;14.50;99.90
7002;DHT22;3541;53.230;10.518;2023-05-10T06:21:27;14.40;99.90
7002;DHT22;3541;53.230;10.518;2023-05-10T06:23:54;14.40;99.90
7002;DHT22;3541;53.230;10.518;2023-05-10T06:26:21;14.50;99.90
7002;DHT22;3541;53.230;10.518;2023-05-10T06:28:47;14.50;99.90
7002;DHT22;3541;53.230;10.518;2023-05-10T06:31:14;14.60;99.90
7002;DHT22;3541;53.230;10.518;2023-05-10T06:33:41;14.60;99.90
7002;DHT22;3541;53.230;10.518;2023-05-10T06:36:09;14.80;99.90
7002;DHT22;3541;53.230;10.518;2023-05-10T06:38:35;14.80;99.90
7002;DHT22;3541;53.230;10.518;2023-05-10T06:41:02;14.80;99.90
7002;DHT22;3541;53.230;10.518;2023-05-10T06:43:29;14.80;99.90
7002;DHT22;3541;53.230;10.518;2023-05-10T06:45:55;14.90;99.90
7002;DHT22;3541;53.230;10.518;2023-05-10T06:48:22;14.90;99.90
7002;DHT22;3541;53.230;10.518;2023-05-10T06:50:48;14.90;99.90
7002;DHT22;3541;53.230;10.518;2023-05-10T06:53:16;14.90;99.90
7002;DHT22;3541;53.230;10.518;2023-05-10T06:55:43;15.00;99.90
7002;DHT22;3541;53.230;10.518;2023-05-10T06:58:09;15.00;99.90
7002;DHT22;3541;53.230;10.518;2023-05-10T07:00:36;15.10;99.90
7002;DHT22;3541;53.230;10.518;2023-05-10T07:03:05;15.10;99.90
7002;DHT22;3541;53.230;10.518;2023-05-10T07:05:32;15.20;99.90
7002;DHT22;3541;53.230;10.518;2023-05-10T07:07:58;15.10;99.90
7002;DHT22;3541;53.230;10.518;2023-05-10T07:10:26;15.20;99.90
7002;DHT22;3541;53.230;10.518;2023-05-10T07:12:53;15.20;99.90
7002;DHT22;3541;53.230;10.518;2023-05-10T07:15:20;15.20;99.90
7002;DHT22;3541;53.230;10.518;2023-05-10T07:17:47;15.30;99.90
7002;DHT22;3541;53.230;10.518;2023-05-10T07:20:14;15.30;99.90
7002;DHT22;3541;53.230;10.518;2023-05-10T07:22:40;15.40;99.90
7002;DHT22;3541;53.230;10.518;2023-05-10T07:25:07;15.60;99.90
7002;DHT22;3541;53.230;10.518;2023-05-10T07:27:35;15.70;99.90
7002;DHT22;3541;53.230;10.518;2023-05-10T07:30:03;15.80;99.90
7002;DHT22;3541;53.230;10.518;2023-05-10T07:32:29;15.80;99.90
7002;DHT22;3541;53.230;10.518;2023-05-10T07:34:56;15.80;99.90
7002;DHT22;3541;53.230;10.518;2023-05-10T07:37:23;15.80;99.90
7002;DHT22;3541;53.230;10.518;2023-05-10T07:39:49;15.90;99.90
7002;DHT22;3541;53.230;10.518;2023-05-10T07:42:16;16.00;99.90
7002;DHT22;3541;53.230;10.518;2023-05-10T07:44:44;16.20;99.90
7002;DHT22;3541;53.230;10.518;2023-05-10T07:47:10;16.30;99.90
7002;DHT22;3541;53.230;10.518;2023-05-10T07:49:37;16.40;99.90
7002;DHT22;3541;53.230;10.518;2023-05-10T07:52:03;16.40;99.90
7002;DHT22;3541;53.230;10.518;2023-05-10T07:54:30;16.40;99.90
7002;DHT22;3541;53.230;10.518;2023-05-10T07:56:57;16.30;99.90
7002;DHT22;3541;53.230;10.518;2023-05-10T07:59:25;16.30;99.90
7002;DHT22;3541;53.230;10.518;2023-05-10T08:01:52;16.30;99.90
7002;DHT22;3541;53.230;10.518;2023-05-10T08:04:19;16.40;99.90
7002;DHT22;3541;53.230;10.518;2023-05-10T08:06:45;16.50;99.90
7002;DHT22;3541;53.230;10.518;2023-05-10T08:09:12;16.50;99.90
7002;DHT22;3541;53.230;10.518;2023-05-10T08:11:39;16.60;99.90
7002;DHT22;3541;53.230;10.518;2023-05-10T08:14:06;16.70;99.90
7002;DHT22;3541;53.230;10.518;2023-05-10T08:16:32;16.70;99.90
7002;DHT22;3541;53.230;10.518;2023-05-10T08:19:01;16.70;99.90
7002;DHT22;3541;53.230;10.518;2023-05-10T08:21:27;16.80;99.90
7002;DHT22;3541;53.230;10.518;2023-05-10T08:23:54;16.80;99.90
7002;DHT22;3541;53.230;10.518;2023-05-10T08:26:20;16.80;99.90
7002;DHT22;3541;53.230;10.518;2023-05-10T08:28:47;16.80;99.90
7002;DHT22;3541;53.230;10.518;2023-05-10T08:31:14;16.90;99.90
7002;DHT22;3541;53.230;10.518;2023-05-10T08:33:41;16.80;99.90
7002;DHT22;3541;53.230;10.518;2023-05-10T08:36:09;16.80;99.90
7002;DHT22;3541;53.230;10.518;2023-05-10T08:38:35;16.90;99.90
7002;DHT22;3541;53.230;10.518;2023-05-10T08:41:03;16.80;99.90
7002;DHT22;3541;53.230;10.518;2023-05-10T08:43:31;16.70;99.90
7002;DHT22;3541;53.230;10.518;2023-05-10T08:46:00;16.60;99.90
7002;DHT22;3541;53.230;10.518;2023-05-10T08:48:29;16.50;99.90
7002;DHT22;3541;53.230;10.518;2023-05-10T08:50:58;16.50;99.90
7002;DHT22;3541;53.230;10.518;2023-05-10T08:53:26;16.40;99.90
7002;DHT22;3541;53.230;10.518;2023-05-10T08:55:55;16.40;99.90
7002;DHT22;3541;53.230;10.518;2023-05-10T08:58:22;16.30;99.90
7002;DHT22;3541;53.230;10.518;2023-05-10T09:00:49;16.40;99.90
7002;DHT22;3541;53.230;10.518;2023-05-10T09:03:17;16.40;99.90
7002;DHT22;3541;53.230;10.518;2023-05-10T09:05:44;16.40;99.90
7002;DHT22;3541;53.230;10.518;2023-05-10T09:08:11;16.30;99.90
7002;DHT22;3541;53.230;10.518;2023-05-10T09:10:40;16.30;99.90
7002;DHT22;3541;53.230;10.518;2023-05-10T09:13:09;16.30;99.90
7002;DHT22;3541;53.230;10.518;2023-05-10T09:15:36;16.30;99.90
7002;DHT22;3541;53.230;10.518;2023-05-10T09:18:02;16.30;99.90
7002;DHT22;3541;53.230;10.518;2023-05-10T09:20:29;16.30;99.90
7002;DHT22;3541;53.230;10.518;2023-05-10T09:22:56;16.30;99.90
7002;DHT22;3541;53.230;10.518;2023-05-10T09:25:23;16.40;99.90
7002;DHT22;3541;53.230;10.518;2023-05-10T09:27:51;16.50;99.90
7002;DHT22;3541;53.230;10.518;2023-05-10T09:30:24;16.60;99.90
7002;DHT22;3541;53.230;10.518;2023-05-10T09:32:51;16.60;99.90
7002;DHT22;3541;53.230;10.518;2023-05-10T09:35:19;16.70;99.90
7002;DHT22;3541;53.230;10.518;2023-05-10T09:37:48;16.70;99.90
7002;DHT22;3541;53.230;10.518;2023-05-10T09:40:16;16.70;99.90
7002;DHT22;3541;53.230;10.518;2023-05-10T09:42:52;16.70;99.90
7002;DHT22;3541;53.230;10.518;2023-05-10T09:45:20;16.60;99.90
7002;DHT22;3541;53.230;10.518;2023-05-10T09:47:47;16.60;99.90
7002;DHT22;3541;53.230;10.518;2023-05-10T09:50:13;16.60;99.90
7002;DHT22;3541;53.230;10.518;2023-05-10T09:52:50;16.60;99.90
7002;DHT22;3541;53.230;10.518;2023-05-10T09:55:19;16.60;99.90
7002;DHT22;3541;53.230;10.518;2023-05-10T09:57:47;16.60;99.90
7002;DHT22;3541;53.230;10.518;2023-05-10T10:00:19;16.50;99.90
7002;DHT22;3541;53.230;10.518;2023-05-10T10:02:47;16.40;99.90
7002;DHT22;3541;53.230;10.518;2023-05-10T10:05:14;16.40;99.90
7002;DHT22;3541;53.230;10.518;2023-05-10T10:07:41;16.50;99.90
7002;DHT22;3541;53.230;10.518;2023-05-10T10:10:08;16.60;99.90
7002;DHT22;3541;53.230;10.518;2023-05-10T10:12:38;16.50;99.90
7002;DHT22;3541;53.230;10.518;2023-05-10T10:15:07;16.40;99.90
7002;DHT22;3541;53.230;10.518;2023-05-10T10:17:36;16.30;99.90
7002;DHT22;3541;53.230;10.518;2023-05-10T10:20:04;16.40;99.90
7002;DHT22;3541;53.230;10.518;2023-05-10T10:22:31;16.40;99.90
7002;DHT22;3541;53.230;10.518;2023-05-10T10:24:57;16.40;99.90
7002;DHT22;3541;53.230;10.518;2023-05-10T10:27:38;16.40;99.90
7002;DHT22;3541;53.230;10.518;2023-05-10T10:30:20;16.40;99.90
7002;DHT22;3541;53.230;10.518;2023-05-10T10:33:11;16.30;99.90
7002;DHT22;3541;53.230;10.518;2023-05-10T10:35:40;16.20;99.90
7002;DHT22;3541;53.230;10.518;2023-05-10T10:38:08;16.10;99.90
7002;DHT22;3541;53.230;10.518;2023-05-10T10:40:34;16.00;99.90
7002;DHT22;3541;53.230;10.518;2023-05-10T10:43:22;15.90;99.90
7002;DHT22;3541;53.230;10.518;2023-05-10T10:46:10;15.60;99.90
7002;DHT22;3541;53.230;10.518;2023-05-10T10:48:40;15.60;99.90
7002;DHT22;3541;53.230;10.518;2023-05-10T10:51:07;15.70;99.90
7002;DHT22;3541;53.230;10.518;2023-05-10T10:53:33;15.60;99.90
7002;DHT22;3541;53.230;10.518;2023-05-10T10:56:07;15.40;99.90
7002;DHT22;3541;53.230;10.518;2023-05-10T10:58:36;15.40;99.90
7002;DHT22;3541;53.230;10.518;2023-05-10T11:01:11;15.40;99.90
7002;DHT22;3541;53.230;10.518;2023-05-10T11:03:39;15.40;99.90
7002;DHT22;3541;53.230;10.518;2023-05-10T11:06:06;15.40;99.90
7002;DHT22;3541;53.230;10.518;2023-05-10T11:08:41;15.40;99.90
7002;DHT22;3541;53.230;10.518;2023-05-10T11:11:08;15.50;99.90
7002;DHT22;3541;53.230;10.518;2023-05-10T11:13:41;15.30;99.90
7002;DHT22;3541;53.230;10.518;2023-05-10T11:16:14;15.40;99.90
7002;DHT22;3541;53.230;10.518;2023-05-10T11:18:52;15.30;99.90
7002;DHT22;3541;53.230;10.518;2023-05-10T11:21:19;15.30;99.90
7002;DHT22;3541;53.230;10.518;2023-05-10T11:23:50;15.20;99.90
7002;DHT22;3541;53.230;10.518;2023-05-10T11:26:17;15.20;99.90
7002;DHT22;3541;53.230;10.518;2023-05-10T11:28:45;15.30;99.90
7002;DHT22;3541;53.230;10.518;2023-05-10T11:31:14;15.20;99.90
7002;DHT22;3541;53.230;10.518;2023-05-10T11:33:46;15.30;99.90
7002;DHT22;3541;53.230;10.518;2023-05-10T11:36:14;15.20;99.90
7002;DHT22;3541;53.230;10.518;2023-05-10T11:38:41;15.20;99.90
7002;DHT22;3541;53.230;10.518;2023-05-10T11:41:08;15.20;99.90
7002;DHT22;3541;53.230;10.518;2023-05-10T11:43:37;15.00;99.90
7002;DHT22;3541;53.230;10.518;2023-05-10T11:46:05;15.00;99.90
7002;DHT22;3541;53.230;10.518;2023-05-10T11:48:31;14.90;99.90
7002;DHT22;3541;53.230;10.518;2023-05-10T11:51:00;14.80;99.90
7002;DHT22;3541;53.230;10.518;2023-05-10T11:53:27;14.90;99.90
7002;DHT22;3541;53.230;10.518;2023-05-10T11:55:54;15.00;99.90
7002;DHT22;3541;53.230;10.518;2023-05-10T11:58:20;15.00;99.90
7002;DHT22;3541;53.230;10.518;2023-05-10T12:00:48;15.10;99.90
7002;DHT22;3541;53.230;10.518;2023-05-10T12:03:16;15.10;99.90
7002;DHT22;3541;53.230;10.518;2023-05-10T12:05:43;15.10;99.90
7002;DHT22;3541;53.230;10.518;2023-05-10T12:08:15;15.10;99.90
7002;DHT22;3541;53.230;10.518;2023-05-10T12:10:46;15.10;99.90
7002;DHT22;3541;53.230;10.518;2023-05-10T12:13:13;15.00;99.90
7002;DHT22;3541;53.230;10.518;2023-05-10T12:15:41;15.10;99.90
7002;DHT22;3541;53.230;10.518;2023-05-10T12:18:09;15.20;99.90
7002;DHT22;3541;53.230;10.518;2023-05-10T12:20:36;15.30;99.90
7002;DHT22;3541;53.230;10.518;2023-05-10T12:23:04;15.40;99.90
7002;DHT22;3541;53.230;10.518;2023-05-10T12:25:33;15.30;99.90
7002;DHT22;3541;53.230;10.518;2023-05-10T12:28:05;15.30;99.90
7002;DHT22;3541;53.230;10.518;2023-05-10T12:30:33;15.30;99.90
7002;DHT22;3541;53.230;10.518;2023-05-10T12:33:01;15.30;99.90
7002;DHT22;3541;53.230;10.518;2023-05-10T12:35:30;15.30;99.90
7002;DHT22;3541;53.230;10.518;2023-05-10T12:37:57;15.10;99.90
7002;DHT22;3541;53.230;10.518;2023-05-10T12:40:24;15.30;99.90
7002;DHT22;3541;53.230;10.518;2023-05-10T12:42:52;15.30;99.90
7002;DHT22;3541;53.230;10.518;2023-05-10T12:45:19;15.30;99.90
7002;DHT22;3541;53.230;10.518;2023-05-10T12:47:46;15.50;99.90
7002;DHT22;3541;53.230;10.518;2023-05-10T12:50:13;15.50;99.90
7002;DHT22;3541;53.230;10.518;2023-05-10T12:52:39;15.60;99.90
7002;DHT22;3541;53.230;10.518;2023-05-10T12:55:06;15.60;99.90
7002;DHT22;3541;53.230;10.518;2023-05-10T12:57:33;15.60;99.90
7002;DHT22;3541;53.230;10.518;2023-05-10T13:00:01;15.70;99.90
7002;DHT22;3541;53.230;10.518;2023-05-10T13:02:28;15.70;99.90
7002;DHT22;3541;53.230;10.518;2023-05-10T13:04:54;15.80;99.90
7002;DHT22;3541;53.230;10.518;2023-05-10T13:07:21;15.80;99.90
7002;DHT22;3541;53.230;10.518;2023-05-10T13:09:47;15.80;99.90
7002;DHT22;3541;53.230;10.518;2023-05-10T13:12:14;15.70;99.90
7002;DHT22;3541;53.230;10.518;2023-05-10T13:14:40;15.80;99.90
7002;DHT22;3541;53.230;10.518;2023-05-10T13:17:08;15.80;99.90
7002;DHT22;3541;53.230;10.518;2023-05-10T13:19:35;15.80;99.90
7002;DHT22;3541;53.230;10.518;2023-05-10T13:22:03;15.90;99.90
7002;DHT22;3541;53.230;10.518;2023-05-10T13:24:29;16.00;99.90
7002;DHT22;3541;53.230;10.518;2023-05-10T13:26:56;15.90;99.90
7002;DHT22;3541;53.230;10.518;2023-05-10T13:29:23;15.90;99.90
7002;DHT22;3541;53.230;10.518;2023-05-10T13:31:49;16.00;99.90
7002;DHT22;3541;53.230;10.518;2023-05-10T13:34:17;15.90;99.90
7002;DHT22;3541;53.230;10.518;2023-05-10T13:36:46;16.00;99.90
7002;DHT22;3541;53.230;10.518;2023-05-10T13:39:12;16.10;99.90
7002;DHT22;3541;53.230;10.518;2023-05-10T13:41:39;16.20;99.90
7002;DHT22;3541;53.230;10.518;2023-05-10T13:44:06;16.30;99.90
7002;DHT22;3541;53.230;10.518;2023-05-10T13:46:33;16.30;99.90
7002;DHT22;3541;53.230;10.518;2023-05-10T13:48:59;16.20;99.90
7002;DHT22;3541;53.230;10.518;2023-05-10T13:51:27;16.20;99.90
7002;DHT22;3541;53.230;10.518;2023-05-10T13:53:54;16.20;99.90
7002;DHT22;3541;53.230;10.518;2023-05-10T13:56:20;16.20;99.90
7002;DHT22;3541;53.230;10.518;2023-05-10T13:58:47;16.30;99.90
7002;DHT22;3541;53.230;10.518;2023-05-10T14:01:13;16.20;99.90
7002;DHT22;3541;53.230;10.518;2023-05-10T14:03:40;16.40;99.90
7002;DHT22;3541;53.230;10.518;2023-05-10T14:06:07;16.50;99.90
7002;DHT22;3541;53.230;10.518;2023-05-10T14:08:35;16.50;99.90
7002;DHT22;3541;53.230;10.518;2023-05-10T14:11:02;16.60;99.90
7002;DHT22;3541;53.230;10.518;2023-05-10T14:13:28;16.60;99.90
7002;DHT22;3541;53.230;10.518;2023-05-10T14:15:55;16.60;99.90
7002;DHT22;3541;53.230;10.518;2023-05-10T14:18:22;16.80;99.90
7002;DHT22;3541;53.230;10.518;2023-05-10T14:20:48;16.90;99.90
7002;DHT22;3541;53.230;10.518;2023-05-10T14:23:15;17.00;99.90
7002;DHT22;3541;53.230;10.518;2023-05-10T14:25:43;17.20;99.90
7002;DHT22;3541;53.230;10.518;2023-05-10T14:28:09;17.30;99.90
7002;DHT22;3541;53.230;10.518;2023-05-10T14:30:37;17.20;99.90
7002;DHT22;3541;53.230;10.518;2023-05-10T14:33:04;17.20;99.90
7002;DHT22;3541;53.230;10.518;2023-05-10T14:35:31;17.10;99.90
7002;DHT22;3541;53.230;10.518;2023-05-10T14:37:57;17.00;99.90
7002;DHT22;3541;53.230;10.518;2023-05-10T14:40:24;16.90;99.90
7002;DHT22;3541;53.230;10.518;2023-05-10T14:42:52;17.00;99.90
7002;DHT22;3541;53.230;10.518;2023-05-10T14:45:19;17.10;99.90
7002;DHT22;3541;53.230;10.518;2023-05-10T14:47:46;17.20;99.90
7002;DHT22;3541;53.230;10.518;2023-05-10T14:50:13;17.40;99.90
7002;DHT22;3541;53.230;10.518;2023-05-10T14:52:39;17.50;99.90
7002;DHT22;3541;53.230;10.518;2023-05-10T14:55:07;17.60;99.90
7002;DHT22;3541;53.230;10.518;2023-05-10T14:57:33;17.80;99.90
7002;DHT22;3541;53.230;10.518;2023-05-10T15:00:02;17.80;99.90
7002;DHT22;3541;53.230;10.518;2023-05-10T15:02:30;17.80;99.90
7002;DHT22;3541;53.230;10.518;2023-05-10T15:04:56;17.70;99.90
7002;DHT22;3541;53.230;10.518;2023-05-10T15:07:23;17.80;99.90
7002;DHT22;3541;53.230;10.518;2023-05-10T15:09:50;18.00;99.90
7002;DHT22;3541;53.230;10.518;2023-05-10T15:12:17;18.10;99.90
7002;DHT22;3541;53.230;10.518;2023-05-10T15:14:44;18.00;99.90
7002;DHT22;3541;53.230;10.518;2023-05-10T15:17:12;18.10;99.90
7002;DHT22;3541;53.230;10.518;2023-05-10T15:19:38;17.90;99.90
7002;DHT22;3541;53.230;10.518;2023-05-10T15:22:05;17.80;99.90
7002;DHT22;3541;53.230;10.518;2023-05-10T15:24:31;17.80;99.90
7002;DHT22;3541;53.230;10.518;2023-05-10T15:26:58;17.80;99.90
7002;DHT22;3541;53.230;10.518;2023-05-10T15:29:25;17.90;99.90
7002;DHT22;3541;53.230;10.518;2023-05-10T15:31:52;17.80;99.90
7002;DHT22;3541;53.230;10.518;2023-05-10T15:34:19;17.70;99.90
7002;DHT22;3541;53.230;10.518;2023-05-10T15:36:46;17.70;99.90
7002;DHT22;3541;53.230;10.518;2023-05-10T15:39:13;17.50;99.90
7002;DHT22;3541;53.230;10.518;2023-05-10T15:41:39;17.60;99.90
7002;DHT22;3541;53.230;10.518;2023-05-10T15:44:06;17.60;99.90
7002;DHT22;3541;53.230;10.518;2023-05-10T15:46:32;17.70;99.90
7002;DHT22;3541;53.230;10.518;2023-05-10T15:48:59;17.70;99.90
7002;DHT22;3541;53.230;10.518;2023-05-10T15:51:27;17.70;99.90